createdAt,value
2023-02-19T00:01:28.890Z,26.17
2023-02-19T00:03:58.011Z,22.90
2023-02-19T00:06:26.345Z,25.08
2023-02-19T00:08:53.420Z,25.42
2023-02-19T00:11:22.879Z,26.80
2023-02-19T00:13:52.222Z,24.08
2023-02-19T00:16:24.577Z,23.17
2023-02-19T00:18:51.880Z,25.50
2023-02-19T00:21:19.416Z,26.50
2023-02-19T00:23:54.196Z,23.30
2023-02-19T00:26:21.621Z,24.50
2023-02-19T00:28:49.972Z,24.60
2023-02-19T00:31:18.878Z,24.40
2023-02-19T00:33:46.757Z,25.58
2023-02-19T00:36:14.631Z,30.05
2023-02-19T00:38:42.539Z,24.13
2023-02-19T00:41:19.398Z,25.23
2023-02-19T00:43:50.086Z,25.25
2023-02-19T00:46:22.420Z,27.67
2023-02-19T00:48:49.531Z,26.33
2023-02-19T00:51:16.959Z,25.02
2023-02-19T00:53:43.817Z,25.90
2023-02-19T00:56:10.614Z,26.05
2023-02-19T00:58:37.382Z,23.65
2023-02-19T01:01:06.481Z,26.77
2023-02-19T01:03:34.577Z,22.55
2023-02-19T01:06:02.235Z,26.52
2023-02-19T01:08:31.074Z,23.17
2023-02-19T01:10:58.448Z,28.95
2023-02-19T01:13:25.538Z,28.13
2023-02-19T01:15:52.487Z,26.42
2023-02-19T01:18:19.287Z,27.52
2023-02-19T01:20:46.924Z,24.30
2023-02-19T01:23:14.196Z,23.85
2023-02-19T01:25:42.105Z,27.98
2023-02-19T01:28:09.398Z,27.70
2023-02-19T01:30:37.194Z,28.65
2023-02-19T01:33:05.611Z,24.05
2023-02-19T01:35:32.680Z,25.90
2023-02-19T01:37:59.437Z,27.08
2023-02-19T01:40:26.857Z,26.17
2023-02-19T01:42:53.660Z,21.70
2023-02-19T01:45:30.331Z,24.42
2023-02-19T01:48:07.076Z,24.60
2023-02-19T01:50:38.989Z,24.38
2023-02-19T01:53:09.543Z,24.23
2023-02-19T01:58:04.375Z,28.98
2023-02-19T02:00:33.711Z,26.30
2023-02-19T02:03:01.432Z,24.13
2023-02-19T02:06:07.188Z,25.50
2023-02-19T02:08:52.899Z,22.65
2023-02-19T02:11:20.559Z,23.63
2023-02-19T02:13:47.309Z,22.63
2023-02-19T02:16:29.087Z,23.98
2023-02-19T02:19:25.058Z,23.90
2023-02-19T02:22:00.260Z,22.58
2023-02-19T02:25:14.828Z,21.13
2023-02-19T02:27:49.358Z,22.25
2023-02-19T02:30:37.548Z,20.45
2023-02-19T02:33:30.567Z,16.55
2023-02-19T02:36:03.648Z,10.45
2023-02-19T02:38:34.604Z,10.27
2023-02-19T02:41:02.607Z,10.48
2023-02-19T02:43:29.360Z,12.07
2023-02-19T02:45:56.293Z,9.70
2023-02-19T02:48:45.786Z,12.35
2023-02-19T02:51:21.072Z,14.85
2023-02-19T02:54:33.846Z,11.10
2023-02-19T02:57:01.834Z,9.68
2023-02-19T02:59:33.522Z,10.57
2023-02-19T03:02:11.218Z,7.68
2023-02-19T03:05:33.954Z,7.90
2023-02-19T03:08:04.575Z,8.07
2023-02-19T03:10:36.214Z,9.23
2023-02-19T03:13:26.019Z,7.97
2023-02-19T03:16:17.485Z,7.17
2023-02-19T03:19:06.809Z,7.38
2023-02-19T03:21:36.331Z,7.80
2023-02-19T03:24:23.048Z,7.13
2023-02-19T03:26:53.998Z,6.97
2023-02-19T03:29:26.400Z,7.85
2023-02-19T03:32:13.075Z,7.85
2023-02-19T03:34:49.247Z,9.80
2023-02-19T03:37:18.931Z,10.10
2023-02-19T03:39:45.775Z,11.67
2023-02-19T03:42:24.972Z,12.15
2023-02-19T03:45:16.336Z,9.52
2023-02-19T03:47:49.973Z,10.90
2023-02-19T03:50:48.257Z,10.73
2023-02-19T03:53:20.487Z,11.77
2023-02-19T03:56:08.327Z,12.35
2023-02-19T03:58:40.487Z,13.18
2023-02-19T04:01:19.786Z,11.55
2023-02-19T04:03:55.636Z,12.27
2023-02-19T04:06:32.026Z,13.20
2023-02-19T04:09:03.036Z,12.15
2023-02-19T04:11:31.514Z,10.45
2023-02-19T04:14:13.136Z,12.05
2023-02-19T04:16:42.726Z,14.02
2023-02-19T04:19:13.877Z,11.88
2023-02-19T04:21:42.312Z,13.93
2023-02-19T04:24:25.260Z,12.65
2023-02-19T04:26:53.237Z,11.23
2023-02-19T04:29:19.888Z,12.90
2023-02-19T04:31:46.651Z,11.93
2023-02-19T04:34:13.557Z,10.90
2023-02-19T04:36:40.346Z,13.05
2023-02-19T04:39:08.264Z,11.50
2023-02-19T04:41:35.202Z,12.63
2023-02-19T04:44:01.864Z,12.52
2023-02-19T04:46:28.788Z,11.05
2023-02-19T04:48:56.164Z,12.15
2023-02-19T04:51:23.796Z,13.18
2023-02-19T04:53:50.514Z,11.43
2023-02-19T04:56:18.326Z,12.05
2023-02-19T04:58:45.611Z,13.23
2023-02-19T05:01:12.996Z,13.38
2023-02-19T05:03:40.472Z,13.10
2023-02-19T05:06:09.826Z,14.10
2023-02-19T05:08:36.722Z,13.85
2023-02-19T05:11:05.921Z,14.35
2023-02-19T05:13:33.018Z,14.27
2023-02-19T05:16:05.742Z,13.70
2023-02-19T05:18:34.750Z,15.50
2023-02-19T05:21:02.035Z,15.85
2023-02-19T05:23:29.269Z,15.23
2023-02-19T05:25:56.455Z,15.07
2023-02-19T05:28:28.710Z,14.02
2023-02-19T05:30:57.112Z,13.65
2023-02-19T05:33:25.981Z,12.77
2023-02-19T05:35:55.335Z,14.65
2023-02-19T05:38:23.001Z,12.27
2023-02-19T05:40:50.568Z,15.30
2023-02-19T05:43:17.587Z,12.45
2023-02-19T05:45:44.455Z,14.43
2023-02-19T05:48:11.916Z,14.20
2023-02-19T05:50:39.969Z,13.80
2023-02-19T05:53:06.792Z,10.85
2023-02-19T05:55:37.085Z,13.55
2023-02-19T05:58:03.798Z,10.93
2023-02-19T06:00:32.230Z,12.20
2023-02-19T06:02:59.015Z,11.68
2023-02-19T06:05:25.713Z,11.13
2023-02-19T06:07:52.626Z,19.85
2023-02-19T06:10:19.737Z,11.38
2023-02-19T06:12:46.437Z,10.82
2023-02-19T06:15:13.116Z,11.73
2023-02-19T06:17:40.405Z,10.80
2023-02-19T06:20:07.333Z,11.23
2023-02-19T06:22:34.188Z,12.52
2023-02-19T06:25:00.898Z,13.05
2023-02-19T06:27:28.209Z,13.57
2023-02-19T06:29:54.964Z,11.13
2023-02-19T06:32:22.404Z,11.23
2023-02-19T06:34:49.132Z,14.50
2023-02-19T06:37:15.860Z,11.88
2023-02-19T06:39:44.016Z,13.25
2023-02-19T06:42:10.740Z,13.40
2023-02-19T06:44:37.534Z,12.98
2023-02-19T06:47:04.736Z,13.70
2023-02-19T06:49:31.393Z,13.38
2023-02-19T06:51:59.247Z,13.07
2023-02-19T06:54:26.403Z,13.55
2023-02-19T06:56:53.247Z,12.55
2023-02-19T06:59:19.887Z,12.15
2023-02-19T07:01:46.721Z,13.40
2023-02-19T07:04:13.501Z,12.30
2023-02-19T07:06:40.309Z,12.75
2023-02-19T07:09:08.621Z,12.23
2023-02-19T07:11:38.183Z,12.85
2023-02-19T07:14:10.217Z,13.68
2023-02-19T07:16:37.537Z,14.88
2023-02-19T07:19:04.376Z,14.77
2023-02-19T07:21:37.913Z,13.68
2023-02-19T07:24:05.837Z,14.23
2023-02-19T07:26:32.557Z,13.73
2023-02-19T07:28:59.510Z,14.20
2023-02-19T07:31:26.455Z,13.23
2023-02-19T07:33:53.474Z,15.07
2023-02-19T07:36:22.827Z,13.05
2023-02-19T07:38:57.436Z,14.10
2023-02-19T07:41:25.017Z,14.50
2023-02-19T07:43:51.717Z,12.88
2023-02-19T07:46:18.422Z,12.60
2023-02-19T07:48:45.791Z,12.15
2023-02-19T07:51:18.772Z,13.80
2023-02-19T07:53:47.041Z,16.33
2023-02-19T07:56:14.253Z,11.95
2023-02-19T07:58:41.546Z,14.05
2023-02-19T08:01:16.064Z,13.52
2023-02-19T08:03:43.951Z,13.98
2023-02-19T08:06:11.758Z,15.48
2023-02-19T08:08:40.043Z,13.68
2023-02-19T08:11:26.393Z,14.85
2023-02-19T08:13:53.776Z,12.85
2023-02-19T08:16:33.074Z,12.98
2023-02-19T08:19:00.503Z,14.65
2023-02-19T08:21:27.189Z,16.52
2023-02-19T08:23:53.817Z,12.07
2023-02-19T08:26:20.796Z,15.40
2023-02-19T08:28:48.811Z,11.88
2023-02-19T08:31:16.238Z,13.15
2023-02-19T08:33:43.231Z,14.75
2023-02-19T08:36:11.667Z,13.65
2023-02-19T08:38:38.578Z,15.73
2023-02-19T08:41:11.781Z,12.52
2023-02-19T11:17:39.379Z,6.90
2023-02-19T11:20:15.072Z,10.75
2023-02-19T11:22:47.064Z,8.20
2023-02-19T11:25:14.608Z,7.22
2023-02-19T11:28:07.584Z,7.32
2023-02-19T11:30:36.617Z,7.15
2023-02-19T11:33:24.622Z,11.27
2023-02-19T11:36:17.994Z,9.65
2023-02-19T11:38:45.165Z,8.60
2023-02-19T11:41:39.872Z,8.02
2023-02-19T11:44:06.741Z,12.45
2023-02-19T11:46:49.725Z,10.20
2023-02-19T11:49:34.606Z,8.80
2023-02-19T11:52:29.381Z,6.47
2023-02-19T11:55:03.966Z,8.32
2023-02-19T11:57:44.555Z,10.40
2023-02-19T12:00:27.581Z,6.93
2023-02-19T12:03:29.575Z,7.47
2023-02-19T12:06:22.313Z,9.75
2023-02-19T12:09:10.881Z,9.68
2023-02-19T12:12:14.987Z,8.55
2023-02-19T12:14:58.902Z,7.68
2023-02-19T12:17:56.222Z,8.18
2023-02-19T12:20:40.187Z,8.48
2023-02-19T12:23:07.152Z,7.05
2023-02-19T12:25:58.445Z,6.15
2023-02-19T12:28:25.456Z,6.30
2023-02-19T12:31:35.180Z,6.75
2023-02-19T12:34:20.580Z,8.63
2023-02-19T12:37:06.165Z,5.88
2023-02-19T12:39:44.223Z,7.00
2023-02-19T12:42:47.948Z,9.27
2023-02-19T12:45:25.884Z,8.90
2023-02-19T12:48:01.588Z,4.63
2023-02-19T12:50:34.557Z,8.05
2023-02-19T12:53:40.045Z,11.63
2023-02-19T12:56:14.803Z,9.00
2023-02-19T12:58:51.073Z,8.25
2023-02-19T13:01:31.881Z,6.28
2023-02-19T13:04:16.990Z,8.40
2023-02-19T13:06:53.857Z,8.77
2023-02-19T13:09:29.322Z,12.77
2023-02-19T13:12:04.809Z,7.18
2023-02-19T13:14:40.263Z,10.02
2023-02-19T13:17:33.119Z,8.57
2023-02-19T13:20:15.228Z,8.52
2023-02-19T13:23:26.086Z,12.88
2023-02-19T13:26:21.006Z,14.65
2023-02-19T13:29:09.164Z,10.02
2023-02-19T13:31:58.083Z,10.57
2023-02-19T13:34:47.946Z,9.38
2023-02-19T13:37:16.396Z,10.02
2023-02-19T13:39:51.396Z,10.40
2023-02-19T13:42:29.035Z,7.75
2023-02-19T13:44:57.987Z,7.57
2023-02-19T13:48:04.554Z,11.33
2023-02-19T13:50:34.241Z,8.07
2023-02-19T13:53:22.039Z,4.77
2023-02-19T13:55:52.548Z,5.88
2023-02-19T13:58:39.720Z,8.02
2023-02-19T14:01:10.276Z,6.72
2023-02-19T14:03:37.133Z,9.35
2023-02-19T14:06:06.846Z,9.27
2023-02-19T14:08:58.769Z,8.90
2023-02-19T14:12:03.737Z,8.50
2023-02-19T14:14:37.784Z,8.55
2023-02-19T14:17:26.946Z,4.60
2023-02-19T14:20:21.364Z,9.02
2023-02-19T14:23:01.716Z,8.18
2023-02-19T14:25:49.134Z,7.28
2023-02-19T14:28:45.008Z,9.77
2023-02-19T14:31:29.319Z,7.47
2023-02-19T14:34:00.517Z,7.55
2023-02-19T14:36:45.269Z,7.47
2023-02-19T14:39:24.611Z,10.60
2023-02-19T14:41:54.994Z,9.90
2023-02-19T14:44:52.883Z,9.85
2023-02-19T14:47:26.024Z,11.18
2023-02-19T14:50:02.641Z,8.82
2023-02-19T14:52:46.608Z,7.95
2023-02-19T14:55:29.191Z,11.02
2023-02-19T14:57:59.885Z,8.05
2023-02-19T15:00:27.085Z,12.27
2023-02-19T15:02:56.857Z,12.13
2023-02-19T15:05:45.027Z,12.30
2023-02-19T15:08:18.560Z,12.60
2023-02-19T15:10:45.908Z,12.25
2023-02-19T15:13:24.134Z,14.02
2023-02-19T15:15:51.222Z,12.20
2023-02-19T15:18:21.374Z,12.15
2023-02-19T15:20:48.864Z,11.85
2023-02-19T15:23:22.604Z,11.32
2023-02-19T15:25:49.996Z,14.57
2023-02-19T15:28:24.235Z,7.13
2023-02-19T15:31:06.261Z,10.60
2023-02-19T15:33:33.730Z,11.60
2023-02-19T15:36:04.816Z,9.95
2023-02-19T15:38:33.232Z,9.68
2023-02-19T15:41:00.485Z,11.23
2023-02-19T15:43:44.359Z,13.55
2023-02-19T15:46:20.793Z,14.27
2023-02-19T15:48:59.785Z,13.38
2023-02-19T15:51:43.589Z,12.68
2023-02-19T15:54:29.849Z,14.57
2023-02-19T15:57:03.350Z,12.02
2023-02-19T15:59:39.070Z,15.95
2023-02-19T16:02:13.291Z,9.10
2023-02-19T16:04:45.123Z,11.95
2023-02-19T16:07:24.971Z,11.25
2023-02-19T16:10:18.026Z,13.87
2023-02-19T16:12:54.971Z,13.30
2023-02-19T16:15:21.881Z,12.00
2023-02-19T16:17:48.906Z,9.88
2023-02-19T16:20:34.832Z,13.85
2023-02-19T16:23:04.446Z,9.57
2023-02-19T16:25:41.803Z,9.68
2023-02-19T16:28:24.290Z,10.90
2023-02-19T16:31:04.443Z,12.48
2023-02-19T16:33:37.030Z,12.13
2023-02-19T16:36:21.436Z,14.80
2023-02-19T16:39:14.846Z,12.65
2023-02-19T16:42:02.359Z,14.35
2023-02-19T16:44:31.013Z,20.63
2023-02-19T16:47:12.559Z,11.82
2023-02-19T16:49:42.581Z,17.73
2023-02-19T16:52:14.451Z,13.23
2023-02-19T16:54:41.439Z,10.77
2023-02-19T16:57:08.122Z,12.20
2023-02-19T16:59:35.020Z,14.38
2023-02-19T17:02:05.653Z,14.77
2023-02-19T17:06:59.307Z,14.25
2023-02-19T17:09:26.027Z,11.32
2023-02-19T17:11:52.718Z,14.32
2023-02-19T17:14:19.559Z,12.70
2023-02-19T17:16:46.969Z,11.18
2023-02-19T17:19:18.730Z,14.27
2023-02-19T17:21:46.880Z,15.23
2023-02-19T17:24:14.778Z,13.20
2023-02-19T17:26:41.954Z,15.75
2023-02-19T17:29:14.210Z,11.75
2023-02-19T17:31:41.019Z,19.33
2023-02-19T17:34:07.883Z,18.30
2023-02-19T17:36:34.783Z,26.58
2023-02-19T17:39:03.297Z,15.15
2023-02-19T17:41:30.009Z,7.55
2023-02-19T17:43:56.848Z,17.48
2023-02-19T17:46:26.267Z,27.60
2023-02-19T17:48:54.200Z,15.80
2023-02-19T17:51:21.505Z,9.02
2023-02-19T17:53:48.296Z,21.48
2023-02-19T17:56:25.652Z,13.90
2023-02-19T17:58:53.228Z,12.43
2023-02-19T18:01:20.042Z,13.40
2023-02-19T18:03:46.943Z,14.07
2023-02-19T18:06:13.861Z,12.82
2023-02-19T18:08:47.052Z,11.43
2023-02-19T18:11:14.001Z,17.52
2023-02-19T18:13:40.748Z,13.35
2023-02-19T18:16:07.555Z,9.77
2023-02-19T18:18:34.264Z,12.95
2023-02-19T18:21:01.025Z,15.60
2023-02-19T18:23:27.762Z,14.98
2023-02-19T18:25:54.546Z,14.55
2023-02-19T18:28:21.249Z,11.55
2023-02-19T18:30:48.531Z,12.13
2023-02-19T18:33:15.586Z,12.75
2023-02-19T18:35:42.273Z,13.23
2023-02-19T18:38:08.988Z,10.25
2023-02-19T18:40:35.715Z,11.60
2023-02-19T18:43:02.415Z,11.98
2023-02-19T18:45:29.771Z,10.93
2023-02-19T18:47:56.599Z,11.55
2023-02-19T18:50:23.487Z,12.40
2023-02-19T18:52:50.271Z,11.40
2023-02-19T18:55:17.026Z,15.55
2023-02-19T18:57:44.424Z,13.10
2023-02-19T19:00:16.731Z,10.85
2023-02-19T19:02:49.683Z,12.70
2023-02-19T19:05:22.851Z,10.10
2023-02-19T19:07:54.448Z,12.82
2023-02-19T19:10:21.483Z,12.10
2023-02-19T19:12:48.879Z,14.90
2023-02-19T19:15:18.464Z,10.68
2023-02-19T19:17:46.686Z,11.52
2023-02-19T19:20:14.703Z,13.82
2023-02-19T19:22:41.327Z,12.70
2023-02-19T19:25:08.953Z,15.48
2023-02-19T19:27:35.903Z,14.18
2023-02-19T19:30:04.767Z,13.95
2023-02-19T19:32:31.583Z,16.30
2023-02-19T19:34:58.423Z,12.57
2023-02-19T19:37:28.094Z,12.88
2023-02-19T19:39:56.284Z,13.77
2023-02-19T19:42:23.340Z,16.48
2023-02-19T19:44:50.163Z,15.00
2023-02-19T19:47:17.281Z,11.55
2023-02-19T19:49:47.223Z,14.43
2023-02-19T19:52:14.018Z,16.40
2023-02-19T19:54:42.318Z,12.60
2023-02-19T19:57:10.011Z,14.30
2023-02-19T19:59:39.176Z,16.77
2023-02-19T20:02:07.578Z,14.23
2023-02-19T20:04:34.641Z,19.13
2023-02-19T20:07:02.129Z,18.38
2023-02-19T20:09:29.139Z,16.48
2023-02-19T20:11:56.102Z,15.25
2023-02-19T20:14:24.433Z,13.35
2023-02-19T20:16:51.719Z,15.52
2023-02-19T20:19:20.331Z,15.05
2023-02-19T20:21:49.005Z,17.23
2023-02-19T20:24:17.541Z,14.40
2023-02-19T20:26:44.438Z,12.00
2023-02-19T20:29:11.595Z,12.00
2023-02-19T20:31:38.788Z,10.82
2023-02-19T20:34:05.855Z,11.85
2023-02-19T20:36:32.818Z,10.90
2023-02-19T20:38:59.771Z,14.23
2023-02-19T20:41:26.572Z,15.32
2023-02-19T20:43:53.481Z,48.85
2023-02-19T20:46:20.239Z,10.88
2023-02-19T20:48:47.139Z,12.57
2023-02-19T20:51:13.932Z,7.22
2023-02-19T20:53:41.928Z,13.73
2023-02-19T20:56:09.570Z,11.82
2023-02-19T20:58:36.288Z,9.75
2023-02-19T21:01:03.065Z,10.93
2023-02-19T21:03:30.159Z,9.77
2023-02-19T21:05:56.851Z,8.63
2023-02-19T21:08:23.536Z,10.80
2023-02-19T21:10:50.370Z,8.27
2023-02-19T21:13:17.034Z,9.80
2023-02-19T21:15:43.897Z,10.50
2023-02-19T21:18:10.983Z,7.00
2023-02-19T21:20:37.840Z,10.63
2023-02-19T21:23:04.809Z,12.63
2023-02-19T21:25:33.224Z,9.45
2023-02-19T21:28:00.585Z,12.23
2023-02-19T21:30:27.677Z,10.07
2023-02-19T21:32:54.416Z,13.13
2023-02-19T21:35:21.093Z,11.07
2023-02-19T21:37:48.084Z,10.90
2023-02-19T21:40:15.049Z,10.50
2023-02-19T21:42:41.751Z,9.77
2023-02-19T21:45:08.690Z,11.07
2023-02-19T21:47:35.481Z,11.90
2023-02-19T21:50:02.332Z,12.07
2023-02-19T21:52:31.054Z,11.68
2023-02-19T21:54:58.182Z,10.48
2023-02-19T21:57:25.063Z,11.13
2023-02-19T21:59:51.979Z,9.27
2023-02-19T22:02:22.449Z,10.95
2023-02-19T22:07:21.620Z,8.82
2023-02-19T22:09:49.917Z,13.65
2023-02-19T22:12:18.124Z,11.15
2023-02-19T22:14:45.672Z,9.88
2023-02-19T22:17:12.672Z,13.13
2023-02-19T22:19:39.503Z,13.05
2023-02-19T22:22:06.330Z,9.70
2023-02-19T22:24:33.160Z,11.35
2023-02-19T22:26:59.916Z,12.90
2023-02-19T22:29:26.969Z,13.10
2023-02-19T22:31:55.081Z,18.00
2023-02-19T22:34:22.050Z,15.25
2023-02-19T22:36:49.009Z,12.57
2023-02-19T22:39:25.043Z,14.60
2023-02-19T22:41:52.505Z,14.30
2023-02-19T22:44:19.510Z,11.75
2023-02-19T22:46:52.793Z,12.88
2023-02-19T22:49:20.336Z,12.00
2023-02-19T22:51:50.644Z,11.43
2023-02-19T22:54:17.586Z,13.00
2023-02-19T22:56:44.483Z,12.13
2023-02-19T22:59:11.160Z,8.63
2023-02-19T23:01:37.883Z,10.43
2023-02-19T23:04:04.869Z,15.45
2023-02-19T23:06:34.100Z,15.32
2023-02-19T23:09:10.546Z,13.88
2023-02-19T23:11:39.193Z,14.02
2023-02-19T23:14:07.090Z,15.80
2023-02-19T23:16:36.001Z,14.52
2023-02-19T23:19:08.100Z,16.25
2023-02-19T23:21:35.023Z,17.33
2023-02-19T23:24:01.942Z,16.33
2023-02-19T23:26:28.671Z,15.27
2023-02-19T23:28:55.864Z,17.08
2023-02-19T23:31:23.118Z,17.52
2023-02-19T23:33:50.417Z,17.67
2023-02-19T23:36:17.187Z,18.20
2023-02-19T23:38:45.924Z,17.27
2023-02-19T23:41:15.239Z,16.45
2023-02-19T23:43:42.179Z,18.58
2023-02-19T23:46:09.058Z,18.27
2023-02-19T23:48:35.770Z,18.90
2023-02-19T23:51:02.603Z,20.73
2023-02-19T23:53:29.876Z,17.48
2023-02-19T23:55:56.815Z,18.25
2023-02-19T23:58:23.581Z,20.27
